BIG228 VRMM-VRMG
Flight info
| Callsign | BIG228 |
|---|---|
| Flight time | 0h 53m |
| Altitude | 32000 |
| Route | IGRAM1B IGRAM Z749 VENDU |
| Aircraft | B738/M-SDE2E3FGHIRWXY/LB1 |
Departure
| Time | 2026-04-22 20:09 |
|---|---|
| Airport | Velana International Airport (VRMM) |
Arrival
| Time | 2026-04-22 21:02 |
|---|---|
| Airport | Gan International Airport (VRMG) |
| Time | Latitude | Longitude | Altitude | Speed | Heading |
|---|---|---|---|---|---|
| 2026-04-22 19:48 | 4.18759 | 73.52797 | 14 ft | 0 kts | 268° |
| 2026-04-22 19:53 | 4.18759 | 73.52800 | 14 ft | 2 kts | 268° |
| 2026-04-22 19:53 | 4.18760 | 73.52815 | 14 ft | 2 kts | 268° |
| 2026-04-22 19:54 | 4.18760 | 73.52831 | 14 ft | 2 kts | 275° |
| 2026-04-22 19:54 | 4.18754 | 73.52844 | 14 ft | 2 kts | 315° |
| 2026-04-22 19:54 | 4.18741 | 73.52852 | 14 ft | 2 kts | 348° |
| 2026-04-22 19:54 | 4.18735 | 73.52853 | 14 ft | 1 kts | 3° |
| 2026-04-22 19:55 | 4.18730 | 73.52853 | 14 ft | 0 kts | 359° |
| 2026-04-22 19:57 | 4.18731 | 73.52853 | 14 ft | 0 kts | 359° |
| 2026-04-22 19:58 | 4.18745 | 73.52852 | 14 ft | 5 kts | 359° |
| 2026-04-22 19:58 | 4.18800 | 73.52852 | 14 ft | 8 kts | 359° |
| 2026-04-22 19:58 | 4.18857 | 73.52851 | 15 ft | 7 kts | 359° |
| 2026-04-22 19:58 | 4.18903 | 73.52859 | 15 ft | 5 kts | 37° |
| 2026-04-22 19:59 | 4.18925 | 73.52889 | 16 ft | 5 kts | 58° |
| 2026-04-22 20:00 | 4.19472 | 73.52909 | 12 ft | 18 kts | 358° |
| 2026-04-22 20:00 | 4.19602 | 73.52905 | 12 ft | 18 kts | 1° |
| 2026-04-22 20:01 | 4.19733 | 73.52905 | 11 ft | 18 kts | 358° |
| 2026-04-22 20:01 | 4.19865 | 73.52904 | 11 ft | 18 kts | 359° |
| 2026-04-22 20:01 | 4.19999 | 73.52902 | 10 ft | 18 kts | 359° |
| 2026-04-22 20:01 | 4.20130 | 73.52899 | 10 ft | 18 kts | 359° |
| 2026-04-22 20:02 | 4.20261 | 73.52897 | 10 ft | 18 kts | 359° |
| 2026-04-22 20:02 | 4.20395 | 73.52895 | 9 ft | 19 kts | 359° |
| 2026-04-22 20:02 | 4.20531 | 73.52892 | 8 ft | 19 kts | 359° |
| 2026-04-22 20:02 | 4.20668 | 73.52890 | 8 ft | 19 kts | 359° |
| 2026-04-22 20:03 | 4.20801 | 73.52891 | 8 ft | 18 kts | 9° |
| 2026-04-22 20:03 | 4.20908 | 73.52920 | 8 ft | 11 kts | 34° |
| 2026-04-22 20:03 | 4.20930 | 73.52979 | 8 ft | 0 kts | 90° |
| 2026-04-22 20:07 | 4.20930 | 73.52982 | 8 ft | 2 kts | 90° |
| 2026-04-22 20:07 | 4.20930 | 73.53056 | 8 ft | 12 kts | 97° |
| 2026-04-22 20:07 | 4.20872 | 73.53101 | 8 ft | 11 kts | 175° |
| 2026-04-22 20:08 | 4.20856 | 73.53101 | 8 ft | 0 kts | 175° |
| 2026-04-22 20:08 | 4.20853 | 73.53102 | 8 ft | 3 kts | 175° |
| 2026-04-22 20:08 | 4.20645 | 73.53104 | 8 ft | 64 kts | 180° |
| 2026-04-22 20:09 | 4.19877 | 73.53102 | 9 ft | 151 kts | 179° |
| 2026-04-22 20:09 | 4.18689 | 73.53088 | 535 ft | 180 kts | 182° |
| 2026-04-22 20:09 | 4.17436 | 73.52956 | 1263 ft | 203 kts | 187° |
| 2026-04-22 20:09 | 4.15948 | 73.52855 | 2059 ft | 222 kts | 175° |
| 2026-04-22 20:10 | 4.14386 | 73.53033 | 2966 ft | 236 kts | 172° |
| 2026-04-22 20:10 | 4.12717 | 73.53171 | 3925 ft | 248 kts | 176° |
| 2026-04-22 20:10 | 4.10945 | 73.53205 | 4952 ft | 262 kts | 179° |
| 2026-04-22 20:10 | 4.09130 | 73.53190 | 6140 ft | 267 kts | 179° |
| 2026-04-22 20:11 | 4.07236 | 73.53169 | 7058 ft | 283 kts | 179° |
| 2026-04-22 20:11 | 4.05238 | 73.53152 | 8110 ft | 291 kts | 179° |
| 2026-04-22 20:11 | 4.03206 | 73.53140 | 9159 ft | 298 kts | 179° |
| 2026-04-22 20:11 | 4.01128 | 73.53122 | 10220 ft | 302 kts | 181° |
| 2026-04-22 20:12 | 3.99015 | 73.52924 | 10994 ft | 317 kts | 188° |
| 2026-04-22 20:12 | 3.96784 | 73.52515 | 11714 ft | 333 kts | 191° |
| 2026-04-22 20:12 | 3.95231 | 73.52195 | 12163 ft | 344 kts | 191° |
| 2026-04-22 20:12 | 3.92053 | 73.51554 | 13269 ft | 356 kts | 190° |
| 2026-04-22 20:13 | 3.89602 | 73.51091 | 14147 ft | 362 kts | 190° |
| 2026-04-22 20:13 | 3.87120 | 73.50642 | 14970 ft | 368 kts | 190° |
| 2026-04-22 20:13 | 3.84564 | 73.50194 | 15811 ft | 373 kts | 190° |
| 2026-04-22 20:13 | 3.81979 | 73.49745 | 16560 ft | 380 kts | 190° |
| 2026-04-22 20:14 | 3.79358 | 73.49293 | 17324 ft | 385 kts | 190° |
| 2026-04-22 20:14 | 3.76725 | 73.48839 | 18147 ft | 387 kts | 190° |
| 2026-04-22 20:14 | 3.74083 | 73.48383 | 19030 ft | 386 kts | 191° |
| 2026-04-22 20:14 | 3.71431 | 73.47924 | 19850 ft | 386 kts | 191° |
| 2026-04-22 20:15 | 3.68790 | 73.47467 | 20657 ft | 386 kts | 191° |
| 2026-04-22 20:15 | 3.66123 | 73.47005 | 21401 ft | 387 kts | 191° |
| 2026-04-22 20:15 | 3.63473 | 73.46545 | 22133 ft | 387 kts | 191° |
| 2026-04-22 20:15 | 3.60832 | 73.46087 | 22767 ft | 390 kts | 191° |
| 2026-04-22 20:16 | 3.58122 | 73.45615 | 23383 ft | 394 kts | 191° |
| 2026-04-22 20:16 | 3.55414 | 73.45145 | 23924 ft | 398 kts | 191° |
| 2026-04-22 20:16 | 3.52673 | 73.44669 | 24550 ft | 401 kts | 190° |
| 2026-04-22 20:16 | 3.49890 | 73.44186 | 25080 ft | 405 kts | 190° |
| 2026-04-22 20:17 | 3.47110 | 73.43704 | 25665 ft | 407 kts | 189° |
| 2026-04-22 20:17 | 3.44309 | 73.43218 | 26172 ft | 411 kts | 189° |
| 2026-04-22 20:17 | 3.41464 | 73.42726 | 26775 ft | 412 kts | 189° |
| 2026-04-22 20:17 | 3.38634 | 73.42236 | 27251 ft | 416 kts | 189° |
| 2026-04-22 20:18 | 3.35751 | 73.41737 | 27792 ft | 418 kts | 189° |
| 2026-04-22 20:18 | 3.32894 | 73.41242 | 28253 ft | 421 kts | 189° |
| 2026-04-22 20:18 | 3.29969 | 73.40735 | 28739 ft | 424 kts | 188° |
| 2026-04-22 20:18 | 3.27073 | 73.40234 | 29222 ft | 426 kts | 188° |
| 2026-04-22 20:19 | 3.24156 | 73.39728 | 29842 ft | 425 kts | 188° |
| 2026-04-22 20:19 | 3.21231 | 73.39220 | 30498 ft | 422 kts | 188° |
| 2026-04-22 20:19 | 3.18343 | 73.38719 | 31083 ft | 420 kts | 188° |
| 2026-04-22 20:19 | 3.15466 | 73.38220 | 31644 ft | 419 kts | 188° |
| 2026-04-22 20:20 | 3.12552 | 73.37715 | 31819 ft | 424 kts | 188° |
| 2026-04-22 20:20 | 3.06783 | 73.36716 | 31820 ft | 417 kts | 188° |
| 2026-04-22 20:21 | 3.01004 | 73.35714 | 31823 ft | 418 kts | 188° |
| 2026-04-22 20:21 | 2.95272 | 73.34721 | 31822 ft | 418 kts | 188° |
| 2026-04-22 20:22 | 2.89546 | 73.33729 | 31822 ft | 418 kts | 188° |
| 2026-04-22 20:22 | 2.83792 | 73.32732 | 31822 ft | 418 kts | 188° |
| 2026-04-22 20:23 | 2.78044 | 73.31736 | 31821 ft | 418 kts | 188° |
| 2026-04-22 20:23 | 2.72276 | 73.30737 | 31820 ft | 419 kts | 188° |
| 2026-04-22 20:24 | 2.66524 | 73.29741 | 31817 ft | 418 kts | 188° |
| 2026-04-22 20:24 | 2.60774 | 73.28745 | 31812 ft | 418 kts | 188° |
| 2026-04-22 20:25 | 2.55077 | 73.27758 | 31808 ft | 417 kts | 188° |
| 2026-04-22 20:25 | 2.49325 | 73.26762 | 31804 ft | 418 kts | 188° |
| 2026-04-22 20:26 | 2.43570 | 73.25767 | 31803 ft | 418 kts | 188° |
| 2026-04-22 20:26 | 2.37842 | 73.24776 | 31813 ft | 418 kts | 188° |
| 2026-04-22 20:27 | 2.32108 | 73.23783 | 31822 ft | 417 kts | 188° |
| 2026-04-22 20:27 | 2.26362 | 73.22789 | 31822 ft | 418 kts | 188° |
| 2026-04-22 20:28 | 2.20611 | 73.21793 | 31822 ft | 417 kts | 187° |
| 2026-04-22 20:28 | 2.14878 | 73.20802 | 31822 ft | 417 kts | 187° |
| 2026-04-22 20:29 | 2.09145 | 73.19810 | 31822 ft | 416 kts | 187° |
| 2026-04-22 20:29 | 2.03407 | 73.18817 | 31822 ft | 417 kts | 187° |
| 2026-04-22 20:30 | 1.97680 | 73.17826 | 31822 ft | 417 kts | 187° |
| 2026-04-22 20:30 | 1.91962 | 73.16836 | 31822 ft | 417 kts | 187° |
| 2026-04-22 20:31 | 1.86222 | 73.15844 | 31822 ft | 417 kts | 187° |
| 2026-04-22 20:31 | 1.80500 | 73.14854 | 31822 ft | 416 kts | 187° |
| 2026-04-22 20:32 | 1.74779 | 73.13864 | 31822 ft | 417 kts | 187° |
| 2026-04-22 20:32 | 1.69061 | 73.12876 | 31822 ft | 417 kts | 187° |
| 2026-04-22 20:33 | 1.63310 | 73.11882 | 31822 ft | 417 kts | 187° |
| 2026-04-22 20:33 | 1.57570 | 73.10889 | 31822 ft | 417 kts | 187° |
| 2026-04-22 20:34 | 1.51857 | 73.09901 | 31822 ft | 417 kts | 187° |
| 2026-04-22 20:34 | 1.46117 | 73.08908 | 31822 ft | 417 kts | 187° |
| 2026-04-22 20:35 | 1.40351 | 73.07911 | 31822 ft | 417 kts | 187° |
| 2026-04-22 20:35 | 1.34624 | 73.06921 | 31822 ft | 418 kts | 187° |
| 2026-04-22 20:36 | 1.28865 | 73.05926 | 31822 ft | 417 kts | 187° |
| 2026-04-22 20:36 | 1.23157 | 73.04939 | 31822 ft | 418 kts | 187° |
| 2026-04-22 20:37 | 1.17389 | 73.03943 | 31822 ft | 418 kts | 187° |
| 2026-04-22 20:37 | 1.11635 | 73.02947 | 31822 ft | 417 kts | 187° |
| 2026-04-22 20:38 | 1.05877 | 73.01952 | 31821 ft | 418 kts | 187° |
| 2026-04-22 20:38 | 1.00143 | 73.00961 | 31820 ft | 419 kts | 187° |
| 2026-04-22 20:39 | 0.94366 | 72.99963 | 31819 ft | 419 kts | 187° |
| 2026-04-22 20:39 | 0.88622 | 72.98970 | 31818 ft | 418 kts | 187° |
| 2026-04-22 20:40 | 0.82880 | 72.98296 | 31634 ft | 409 kts | 174° |
| 2026-04-22 20:40 | 0.80082 | 72.98695 | 31257 ft | 402 kts | 167° |
| 2026-04-22 20:40 | 0.77356 | 72.99358 | 30791 ft | 404 kts | 164° |
| 2026-04-22 20:40 | 0.74656 | 73.00111 | 30360 ft | 409 kts | 163° |
| 2026-04-22 20:41 | 0.71907 | 73.00885 | 29822 ft | 408 kts | 164° |
| 2026-04-22 20:41 | 0.69165 | 73.01631 | 29270 ft | 405 kts | 165° |
| 2026-04-22 20:41 | 0.66429 | 73.02341 | 28712 ft | 402 kts | 165° |
| 2026-04-22 20:41 | 0.63726 | 73.03015 | 28162 ft | 399 kts | 166° |
| 2026-04-22 20:42 | 0.61052 | 73.03661 | 27619 ft | 396 kts | 166° |
| 2026-04-22 20:42 | 0.58367 | 73.04297 | 27073 ft | 393 kts | 166° |
| 2026-04-22 20:42 | 0.55729 | 73.04914 | 26542 ft | 391 kts | 166° |
| 2026-04-22 20:42 | 0.53079 | 73.05531 | 26006 ft | 388 kts | 166° |
| 2026-04-22 20:43 | 0.50434 | 73.06144 | 25472 ft | 386 kts | 166° |
| 2026-04-22 20:43 | 0.47818 | 73.06750 | 24936 ft | 383 kts | 166° |
| 2026-04-22 20:43 | 0.45236 | 73.07346 | 24406 ft | 381 kts | 166° |
| 2026-04-22 20:43 | 0.42657 | 73.07943 | 23877 ft | 379 kts | 166° |
| 2026-04-22 20:44 | 0.40076 | 73.08540 | 23347 ft | 377 kts | 166° |
| 2026-04-22 20:44 | 0.37547 | 73.09124 | 22828 ft | 375 kts | 166° |
| 2026-04-22 20:44 | 0.35002 | 73.09713 | 22307 ft | 373 kts | 166° |
| 2026-04-22 20:44 | 0.32472 | 73.10298 | 21798 ft | 371 kts | 166° |
| 2026-04-22 20:45 | 0.29945 | 73.10884 | 21279 ft | 370 kts | 166° |
| 2026-04-22 20:45 | 0.27462 | 73.11460 | 20766 ft | 369 kts | 166° |
| 2026-04-22 20:45 | 0.24961 | 73.12040 | 20245 ft | 368 kts | 165° |
| 2026-04-22 20:45 | 0.22462 | 73.12619 | 19726 ft | 367 kts | 165° |
| 2026-04-22 20:46 | 0.17505 | 73.13767 | 18686 ft | 364 kts | 165° |
| 2026-04-22 20:46 | 0.15020 | 73.14342 | 18166 ft | 363 kts | 165° |
| 2026-04-22 20:46 | 0.12550 | 73.14916 | 17649 ft | 362 kts | 165° |
| 2026-04-22 20:47 | 0.10121 | 73.15480 | 17140 ft | 361 kts | 165° |
| 2026-04-22 20:47 | 0.07655 | 73.16053 | 16623 ft | 359 kts | 165° |
| 2026-04-22 20:47 | 0.05225 | 73.16617 | 16110 ft | 358 kts | 165° |
| 2026-04-22 20:47 | 0.02815 | 73.17176 | 15602 ft | 356 kts | 165° |
| 2026-04-22 20:48 | 0.00373 | 73.17741 | 15087 ft | 355 kts | 165° |
| 2026-04-22 20:48 | -0.02014 | 73.18294 | 14583 ft | 353 kts | 165° |
| 2026-04-22 20:48 | -0.04397 | 73.18846 | 14081 ft | 351 kts | 165° |
| 2026-04-22 20:48 | -0.06792 | 73.19401 | 13559 ft | 350 kts | 165° |
| 2026-04-22 20:49 | -0.09147 | 73.19946 | 13059 ft | 348 kts | 166° |
| 2026-04-22 20:49 | -0.11516 | 73.20496 | 12561 ft | 346 kts | 166° |
| 2026-04-22 20:49 | -0.13854 | 73.21037 | 12161 ft | 341 kts | 166° |
| 2026-04-22 20:49 | -0.16166 | 73.21573 | 11714 ft | 338 kts | 166° |
| 2026-04-22 20:50 | -0.18440 | 73.22099 | 11280 ft | 331 kts | 166° |
| 2026-04-22 20:50 | -0.20617 | 73.22602 | 10887 ft | 316 kts | 166° |
| 2026-04-22 20:50 | -0.22739 | 73.23093 | 10483 ft | 303 kts | 166° |
| 2026-04-22 20:50 | -0.24764 | 73.23563 | 10080 ft | 292 kts | 166° |
| 2026-04-22 20:51 | -0.26715 | 73.24017 | 9677 ft | 283 kts | 166° |
| 2026-04-22 20:51 | -0.28608 | 73.24456 | 9276 ft | 275 kts | 166° |
| 2026-04-22 20:51 | -0.30455 | 73.24885 | 8873 ft | 268 kts | 166° |
| 2026-04-22 20:51 | -0.32258 | 73.25303 | 8482 ft | 264 kts | 166° |
| 2026-04-22 20:52 | -0.34044 | 73.25716 | 8076 ft | 261 kts | 166° |
| 2026-04-22 20:52 | -0.35802 | 73.26125 | 7672 ft | 259 kts | 166° |
| 2026-04-22 20:52 | -0.37546 | 73.26529 | 7268 ft | 256 kts | 167° |
| 2026-04-22 20:52 | -0.39286 | 73.26932 | 6862 ft | 254 kts | 167° |
| 2026-04-22 20:53 | -0.41020 | 73.27334 | 6446 ft | 252 kts | 167° |
| 2026-04-22 20:53 | -0.42721 | 73.27728 | 6037 ft | 248 kts | 167° |
| 2026-04-22 20:53 | -0.44390 | 73.28114 | 5645 ft | 243 kts | 167° |
| 2026-04-22 20:53 | -0.45997 | 73.28487 | 5263 ft | 234 kts | 167° |
| 2026-04-22 20:54 | -0.47568 | 73.28851 | 4848 ft | 227 kts | 167° |
| 2026-04-22 20:54 | -0.49095 | 73.29204 | 4444 ft | 221 kts | 167° |
| 2026-04-22 20:54 | -0.50563 | 73.29544 | 4042 ft | 215 kts | 167° |
| 2026-04-22 20:54 | -0.52018 | 73.29881 | 3685 ft | 208 kts | 167° |
| 2026-04-22 20:55 | -0.53393 | 73.30199 | 3363 ft | 202 kts | 167° |
| 2026-04-22 20:55 | -0.54741 | 73.30512 | 3073 ft | 194 kts | 167° |
| 2026-04-22 20:55 | -0.56049 | 73.30815 | 2782 ft | 188 kts | 168° |
| 2026-04-22 20:55 | -0.57299 | 73.31104 | 2494 ft | 183 kts | 168° |
| 2026-04-22 20:56 | -0.58542 | 73.31392 | 2219 ft | 180 kts | 168° |
| 2026-04-22 20:56 | -0.59763 | 73.31675 | 1931 ft | 181 kts | 168° |
| 2026-04-22 20:56 | -0.60987 | 73.31959 | 1648 ft | 181 kts | 168° |
| 2026-04-22 20:56 | -0.62208 | 73.32242 | 1528 ft | 175 kts | 167° |
| 2026-04-22 20:57 | -0.63412 | 73.32498 | 1545 ft | 177 kts | 173° |
| 2026-04-22 20:57 | -0.64641 | 73.32444 | 1547 ft | 177 kts | 191° |
| 2026-04-22 20:57 | -0.65852 | 73.32201 | 1546 ft | 177 kts | 191° |
| 2026-04-22 20:57 | -0.67072 | 73.31988 | 1549 ft | 179 kts | 189° |
| 2026-04-22 20:58 | -0.68318 | 73.31798 | 1551 ft | 178 kts | 189° |
| 2026-04-22 20:58 | -0.69536 | 73.31596 | 1554 ft | 177 kts | 194° |
| 2026-04-22 20:58 | -0.70637 | 73.31052 | 1556 ft | 176 kts | 225° |
| 2026-04-22 20:58 | -0.71244 | 73.30014 | 1564 ft | 172 kts | 253° |
| 2026-04-22 20:59 | -0.71408 | 73.28849 | 1567 ft | 173 kts | 272° |
| 2026-04-22 20:59 | -0.71230 | 73.27658 | 1567 ft | 174 kts | 280° |
| 2026-04-22 20:59 | -0.71014 | 73.26505 | 1546 ft | 159 kts | 278° |
| 2026-04-22 20:59 | -0.70850 | 73.25485 | 1544 ft | 141 kts | 277° |
| 2026-04-22 21:00 | -0.70704 | 73.24526 | 1498 ft | 140 kts | 277° |
| 2026-04-22 21:00 | -0.70556 | 73.23565 | 1384 ft | 140 kts | 277° |
| 2026-04-22 21:00 | -0.70405 | 73.22600 | 1237 ft | 139 kts | 277° |
| 2026-04-22 21:00 | -0.70259 | 73.21655 | 1095 ft | 139 kts | 278° |
| 2026-04-22 21:01 | -0.70110 | 73.20692 | 909 ft | 139 kts | 278° |
| 2026-04-22 21:01 | -0.69963 | 73.19736 | 715 ft | 138 kts | 278° |
| 2026-04-22 21:01 | -0.69816 | 73.18793 | 519 ft | 138 kts | 278° |
| 2026-04-22 21:01 | -0.69670 | 73.17850 | 313 ft | 138 kts | 278° |
| 2026-04-22 21:02 | -0.69525 | 73.16908 | 102 ft | 128 kts | 278° |
| 2026-04-22 21:02 | -0.69403 | 73.16097 | 14 ft | 107 kts | 278° |
| 2026-04-22 21:02 | -0.69328 | 73.15627 | 14 ft | 36 kts | 279° |
| 2026-04-22 21:02 | -0.69311 | 73.15537 | 14 ft | 6 kts | 291° |
| 2026-04-22 21:03 | -0.69306 | 73.15526 | 14 ft | 0 kts | 297° |
| 2026-04-22 21:03 | -0.69305 | 73.15525 | 14 ft | 0 kts | 304° |
| 2026-04-22 21:03 | -0.69303 | 73.15525 | 14 ft | 0 kts | 357° |
| 2026-04-22 21:03 | -0.69301 | 73.15527 | 14 ft | 0 kts | 37° |
| 2026-04-22 21:04 | -0.69295 | 73.15537 | 14 ft | 2 kts | 58° |
| 2026-04-22 21:04 | -0.69261 | 73.15565 | 14 ft | 9 kts | 20° |
| 2026-04-22 21:04 | -0.69191 | 73.15579 | 14 ft | 10 kts | 9° |
| 2026-04-22 21:04 | -0.69130 | 73.15601 | 14 ft | 5 kts | 51° |
| 2026-04-22 21:05 | -0.69127 | 73.15610 | 14 ft | 0 kts | 78° |
| 2026-04-22 21:05 | -0.69126 | 73.15615 | 14 ft | 2 kts | 92° |
| 2026-04-22 21:05 | -0.69127 | 73.15620 | 14 ft | 0 kts | 99° |
| 2026-04-22 21:05 | -0.69134 | 73.15638 | 14 ft | 4 kts | 103° |
| 2026-04-22 21:06 | -0.69137 | 73.15676 | 14 ft | 3 kts | 61° |
| 2026-04-22 21:06 | -0.69125 | 73.15686 | 14 ft | 0 kts | 24° |
| 2026-04-22 21:06 | -0.69107 | 73.15693 | 14 ft | 3 kts | 16° |
| 2026-04-22 21:06 | -0.69092 | 73.15697 | 14 ft | 1 kts | 13° |